Pisek, ND (58273)

2:51 AM CDT on October 24, 2014 (GMT -0500)
Hoople nd | Change Station
CLOSE
Current Station
Personal Weather Station
Location: Hoople, ND
Elevation: 870 ft
Nearby Weather Stations

Elev 870 ft 48.52 °N, 97.62 °W | Updated 7 minutes ago

Clear
Clear
47.9 °F
Feels Like 45 °F
N
7.0
Wind Variable Wind from WSW
Gusts 7.0 mph

Today
High -- | Low -- °F
--% Chance of Precip.
Yesterday
High -- | Low -- °F
Precip. -- in
8:04 AM 6:25 PM
New Moon, 0% visible
Pressure 29.72 in
Visibility 10.0 miles
Clouds Clear
Windchill 45 °F
Dew Point 39 °F
Humidity 72%
Rainfall 0.00 in
Snow Depth Not available.
UV 0 out of 12
Pollen .90 out of 12
Air Quality Not available.
Flu Activity Local Activity
METAR KGAF 240735Z AUTO 22007KT 10SM CLR 08/04 A2972 RMK AO2

More Conditions Fewer Conditions

Pressure 29.72 in
Visibility 10.0 miles
Clouds Clear
Windchill 45 °F
Dew Point 39 °F
Humidity 72%
Rainfall 0.00 in
Snow Depth Not available.
UV 0 out of 12
Pollen .90 out of 12
Air Quality Not available.
Flu Activity Local Activity
METAR KGAF 240735Z AUTO 22007KT 10SM CLR 08/04 A2972 RMK AO2

More Conditions Fewer Conditions

10-Day Weather Forecast

Almanac

Astronomy

Oct. 24, 2014 Rise Set
Actual Time 8:04 AM CDT 6:25 PM CDT
Civil Twilight 7:32 AM CDT 6:57 PM CDT
Nautical Twilight 6:55 AM CDT 7:33 PM CDT
Astronomical Twilight 6:19 AM CDT 8:09 PM CDT
Moon 8:47 AM CDT 7:02 PM CDT
Length of Visible Light 11h 25m
Length of Day
10h 20m
Tomorrow will be 3m 18s shorter.
New Moon, 0% of the Moon is Illuminated
Today
New Moon
Oct 30
First Quarter
Nov 6
Full
Nov 14
Last Quarter
Nov 22
New

Today's Extremes

State Highs State Lows

Community

WunderPhotos

Upload Photos

1,764,512 photos uploaded!

WunderBlogs® & News

Nearby

Snow Depth

Station Depth Elevation
No new snow has been reported.

Earthquake Activity

City Distance Mag. Time & Date
No recent earthquake activity has been reported nearby.
Minimum magnitude displayed is 2.5.

Coastal Water Temperatures

Place Temperature
No Stations Reporting

Nearby Weather Stations